createdAt,value
2023-03-29T00:00:52.867Z,218.95
2023-03-29T00:01:52.893Z,220.76
2023-03-29T00:02:52.944Z,219.92
2023-03-29T00:03:53.013Z,218.16
2023-03-29T00:04:52.862Z,217.95
2023-03-29T00:05:52.891Z,218.56
2023-03-29T00:06:52.867Z,217.92
2023-03-29T00:07:52.870Z,219.22
2023-03-29T00:08:52.876Z,219.80
2023-03-29T00:09:52.886Z,221.53
2023-03-29T00:10:52.871Z,225.59
2023-03-29T00:11:52.871Z,223.07
2023-03-29T00:12:52.904Z,222.43
2023-03-29T00:13:52.888Z,219.02
2023-03-29T00:14:52.869Z,220.77
2023-03-29T00:15:52.893Z,221.03
2023-03-29T00:16:52.931Z,220.92
2023-03-29T00:17:52.931Z,219.17
2023-03-29T00:18:52.906Z,219.88
2023-03-29T00:19:52.887Z,217.79
2023-03-29T00:20:52.892Z,215.72
2023-03-29T00:21:52.934Z,215.59
2023-03-29T00:22:52.907Z,215.62
2023-03-29T00:23:52.900Z,214.95
2023-03-29T00:24:52.913Z,214.33
2023-03-29T00:25:52.926Z,214.70
2023-03-29T00:26:52.914Z,211.70
2023-03-29T00:27:52.909Z,215.72
2023-03-29T00:28:52.910Z,211.09
2023-03-29T00:29:52.911Z,208.24
2023-03-29T00:30:52.965Z,209.59
2023-03-29T00:31:53.052Z,211.41
2023-03-29T00:32:52.974Z,211.36
2023-03-29T00:33:52.955Z,209.73
2023-03-29T00:34:52.951Z,208.19
2023-03-29T00:35:53.003Z,205.28
2023-03-29T00:36:53.032Z,204.90
2023-03-29T00:37:53.086Z,202.65
2023-03-29T00:38:52.954Z,201.20
2023-03-29T00:39:52.966Z,200.12
2023-03-29T00:40:52.939Z,202.57
2023-03-29T00:41:53.004Z,214.18
2023-03-29T00:42:52.944Z,225.19
2023-03-29T00:43:52.965Z,223.91
2023-03-29T00:44:52.942Z,219.32
2023-03-29T00:45:52.972Z,217.02
2023-03-29T00:46:52.978Z,218.90
2023-03-29T00:47:52.986Z,219.40
2023-03-29T00:48:52.934Z,219.54
2023-03-29T00:49:52.941Z,218.07
2023-03-29T00:50:52.952Z,216.62
2023-03-29T00:51:52.960Z,216.47
2023-03-29T00:52:53.006Z,217.19
2023-03-29T00:53:53.065Z,217.09
2023-03-29T00:54:53.128Z,217.08
2023-03-29T00:55:53.133Z,213.72
2023-03-29T00:56:53.178Z,216.69
2023-03-29T00:57:53.138Z,219.01
2023-03-29T00:58:53.152Z,218.16
2023-03-29T00:59:53.141Z,220.23
2023-03-29T01:00:53.142Z,219.68
2023-03-29T01:01:53.152Z,218.52
2023-03-29T01:02:53.239Z,216.84
2023-03-29T01:03:53.251Z,216.54
2023-03-29T01:04:53.141Z,219.71
2023-03-29T01:05:53.141Z,223.75
2023-03-29T01:06:53.206Z,231.84
2023-03-29T01:07:53.142Z,239.12
2023-03-29T01:08:53.137Z,236.10
2023-03-29T01:09:53.136Z,226.24
2023-03-29T01:10:53.124Z,221.72
2023-03-29T01:11:53.132Z,221.42
2023-03-29T01:12:53.120Z,224.21
2023-03-29T01:13:53.120Z,221.43
2023-03-29T01:14:53.122Z,216.28
2023-03-29T01:15:53.125Z,216.08
2023-03-29T01:16:53.126Z,215.34
2023-03-29T01:17:53.142Z,213.85
2023-03-29T01:18:53.101Z,213.77
2023-03-29T01:19:53.128Z,215.80
2023-03-29T01:20:53.107Z,218.37
2023-03-29T01:21:53.097Z,216.99
2023-03-29T01:22:53.126Z,218.26
2023-03-29T01:23:53.107Z,215.88
2023-03-29T01:24:53.093Z,218.84
2023-03-29T01:25:53.118Z,217.74
2023-03-29T01:26:53.130Z,216.57
2023-03-29T01:27:53.123Z,220.36
2023-03-29T01:28:53.122Z,216.30
2023-03-29T01:29:53.114Z,216.40
2023-03-29T01:30:53.106Z,216.99
2023-03-29T01:31:53.112Z,215.92
2023-03-29T01:32:53.174Z,213.89
2023-03-29T01:33:53.134Z,211.22
2023-03-29T01:34:53.176Z,209.33
2023-03-29T01:35:53.232Z,209.67
2023-03-29T01:36:53.281Z,210.33
2023-03-29T01:37:53.334Z,213.70
2023-03-29T01:38:53.379Z,215.05
2023-03-29T01:39:53.425Z,211.27
2023-03-29T01:40:53.458Z,213.91
2023-03-29T01:41:53.509Z,212.78
2023-03-29T01:42:53.569Z,211.20
2023-03-29T01:43:53.647Z,208.68
2023-03-29T01:44:53.670Z,208.80
2023-03-29T01:45:53.751Z,208.79
2023-03-29T01:46:53.772Z,209.78
2023-03-29T01:47:53.826Z,210.62
2023-03-29T01:48:53.860Z,211.68
2023-03-29T01:49:53.906Z,213.76
2023-03-29T01:50:53.919Z,214.33
2023-03-29T01:51:53.892Z,212.16
2023-03-29T01:52:53.890Z,211.15
2023-03-29T01:53:53.904Z,211.45
2023-03-29T01:54:53.893Z,208.76
2023-03-29T01:55:53.903Z,209.05
2023-03-29T01:56:53.925Z,207.33
2023-03-29T01:57:53.914Z,209.39
2023-03-29T01:58:53.897Z,208.55
2023-03-29T01:59:53.892Z,210.05
2023-03-29T02:00:53.946Z,212.75
2023-03-29T02:01:53.954Z,213.03
2023-03-29T02:02:53.984Z,211.23
2023-03-29T02:03:53.896Z,212.64
2023-03-29T02:04:53.941Z,211.86
2023-03-29T02:05:53.895Z,212.23
2023-03-29T02:06:53.903Z,208.85
2023-03-29T02:07:53.907Z,208.91
2023-03-29T02:08:53.924Z,208.75
2023-03-29T02:09:53.915Z,208.38
2023-03-29T02:10:53.905Z,208.73
2023-03-29T02:11:53.913Z,206.46
2023-03-29T02:12:53.902Z,209.06
2023-03-29T02:13:53.900Z,208.97
2023-03-29T02:14:53.912Z,209.49
2023-03-29T02:15:53.942Z,206.58
2023-03-29T02:16:53.897Z,209.24
2023-03-29T02:17:53.927Z,207.95
2023-03-29T02:18:53.916Z,206.85
2023-03-29T02:19:53.925Z,207.59
2023-03-29T02:20:53.923Z,207.32
2023-03-29T02:21:53.912Z,205.65
2023-03-29T02:22:53.921Z,206.68
2023-03-29T02:23:53.906Z,208.22
2023-03-29T02:24:53.936Z,207.57
2023-03-29T02:25:53.925Z,207.92
2023-03-29T02:26:53.936Z,208.09
2023-03-29T02:27:53.914Z,207.82
2023-03-29T02:28:53.903Z,208.86
2023-03-29T02:29:53.918Z,208.83
2023-03-29T02:30:53.953Z,208.11
2023-03-29T02:31:53.916Z,207.06
2023-03-29T02:32:53.973Z,207.79
2023-03-29T02:33:53.933Z,208.78
2023-03-29T02:34:53.992Z,209.33
2023-03-29T02:35:54.026Z,208.74
2023-03-29T02:36:54.020Z,209.55
2023-03-29T02:37:54.006Z,209.35
2023-03-29T02:38:54.003Z,209.86
2023-03-29T02:39:54.016Z,210.05
2023-03-29T02:40:54.013Z,211.97
2023-03-29T02:41:54.004Z,212.36
2023-03-29T02:42:54.453Z,213.51
2023-03-29T02:43:54.014Z,214.45
2023-03-29T02:44:54.021Z,212.32
2023-03-29T02:45:54.007Z,214.66
2023-03-29T02:46:54.072Z,216.48
2023-03-29T02:47:54.046Z,217.95
2023-03-29T02:48:54.020Z,218.16
2023-03-29T02:49:54.025Z,216.65
2023-03-29T02:50:54.021Z,220.04
2023-03-29T02:51:53.999Z,221.13
2023-03-29T02:52:54.029Z,220.16
2023-03-29T02:53:54.011Z,220.12
2023-03-29T02:54:53.994Z,221.63
2023-03-29T02:55:54.006Z,222.11
2023-03-29T02:56:54.052Z,225.85
2023-03-29T02:57:53.999Z,227.71
2023-03-29T02:58:54.006Z,229.64
2023-03-29T02:59:53.990Z,228.66
2023-03-29T03:00:53.983Z,226.07
2023-03-29T03:01:54.058Z,226.51
2023-03-29T03:02:54.029Z,226.05
2023-03-29T03:03:54.080Z,229.05
2023-03-29T03:04:53.988Z,229.79
2023-03-29T03:05:53.981Z,230.14
2023-03-29T03:06:53.976Z,229.45
2023-03-29T03:07:53.963Z,231.78
2023-03-29T03:08:53.983Z,230.23
2023-03-29T03:09:53.961Z,229.81
2023-03-29T03:10:53.972Z,229.72
2023-03-29T03:11:53.952Z,227.76
2023-03-29T03:12:53.962Z,228.82
2023-03-29T03:13:53.956Z,227.98
2023-03-29T03:14:53.950Z,228.75
2023-03-29T03:15:53.993Z,228.85
2023-03-29T03:16:53.939Z,228.86
2023-03-29T03:17:53.991Z,228.61
2023-03-29T03:18:53.924Z,226.64
2023-03-29T03:19:53.927Z,227.62
2023-03-29T03:20:53.910Z,226.75
2023-03-29T03:21:53.903Z,226.34
2023-03-29T03:22:53.896Z,225.88
2023-03-29T03:23:53.877Z,227.57
2023-03-29T03:24:53.900Z,227.54
2023-03-29T03:25:53.902Z,226.75
2023-03-29T03:26:53.906Z,224.16
2023-03-29T03:27:53.875Z,227.70
2023-03-29T03:28:53.854Z,228.24
2023-03-29T03:29:53.849Z,226.83
2023-03-29T03:30:53.845Z,228.05
2023-03-29T03:31:54.388Z,229.44
2023-03-29T03:32:53.854Z,230.36
2023-03-29T03:33:53.857Z,229.50
2023-03-29T03:34:53.846Z,228.93
2023-03-29T03:35:53.883Z,229.60
2023-03-29T03:36:53.841Z,230.05
2023-03-29T03:37:53.819Z,230.64
2023-03-29T03:38:53.817Z,228.40
2023-03-29T03:39:53.812Z,229.91
2023-03-29T03:40:53.829Z,230.83
2023-03-29T03:41:53.823Z,228.22
2023-03-29T03:42:53.836Z,228.14
2023-03-29T03:43:53.831Z,227.40
2023-03-29T03:44:53.831Z,227.36
2023-03-29T03:45:53.836Z,227.78
2023-03-29T03:46:53.824Z,225.76
2023-03-29T03:47:53.859Z,228.35
2023-03-29T03:48:53.821Z,233.09
2023-03-29T03:49:53.810Z,235.45
2023-03-29T03:50:53.807Z,236.43
2023-03-29T03:51:53.795Z,233.59
2023-03-29T03:52:53.806Z,229.09
2023-03-29T03:53:53.807Z,228.71
2023-03-29T03:54:53.802Z,230.10
2023-03-29T03:55:53.798Z,226.06
2023-03-29T03:56:53.862Z,226.41
2023-03-29T03:57:53.815Z,228.29
2023-03-29T03:58:53.792Z,230.29
2023-03-29T03:59:53.797Z,229.97
2023-03-29T04:00:53.803Z,228.11
2023-03-29T04:01:53.784Z,225.94
2023-03-29T04:02:53.845Z,226.18
2023-03-29T04:03:53.844Z,226.30
2023-03-29T04:04:53.778Z,223.88
2023-03-29T04:05:53.794Z,221.00
2023-03-29T04:06:53.795Z,220.68
2023-03-29T04:07:53.799Z,223.59
2023-03-29T04:08:53.813Z,225.34
2023-03-29T04:09:53.786Z,224.99
2023-03-29T04:10:53.785Z,226.17
2023-03-29T04:11:53.801Z,228.75
2023-03-29T04:12:53.849Z,227.04
2023-03-29T04:13:53.898Z,226.44
2023-03-29T04:14:53.936Z,224.59
2023-03-29T04:15:54.104Z,226.75
2023-03-29T04:16:54.013Z,228.14
2023-03-29T04:17:54.145Z,228.72
2023-03-29T04:18:54.024Z,225.52
2023-03-29T04:19:53.977Z,227.28
2023-03-29T04:20:53.995Z,232.17
2023-03-29T04:21:53.970Z,237.96
2023-03-29T04:22:53.983Z,239.13
2023-03-29T04:23:53.967Z,238.84
2023-03-29T04:24:53.955Z,232.15
2023-03-29T04:25:53.978Z,228.34
2023-03-29T04:26:53.966Z,228.90
2023-03-29T04:27:53.952Z,227.00
2023-03-29T04:28:53.956Z,228.90
2023-03-29T04:29:53.965Z,226.69
2023-03-29T04:30:53.964Z,227.08
2023-03-29T04:31:53.960Z,226.85
2023-03-29T04:32:53.985Z,222.87
2023-03-29T04:33:53.949Z,222.65
2023-03-29T04:34:53.957Z,221.81
2023-03-29T04:35:54.002Z,221.31
2023-03-29T04:36:53.961Z,221.64
2023-03-29T04:37:53.929Z,221.93
2023-03-29T04:38:53.931Z,223.28
2023-03-29T04:39:53.920Z,224.25
2023-03-29T04:40:53.925Z,224.36
2023-03-29T04:41:53.914Z,226.02
2023-03-29T04:42:53.914Z,228.08
2023-03-29T04:43:53.915Z,229.53
2023-03-29T04:44:53.946Z,227.52
2023-03-29T04:45:53.980Z,226.54
2023-03-29T04:46:53.955Z,228.71
2023-03-29T04:47:53.973Z,229.55
2023-03-29T04:48:53.934Z,229.76
2023-03-29T04:49:53.920Z,233.76
2023-03-29T04:50:53.925Z,233.95
2023-03-29T04:51:53.922Z,232.75
2023-03-29T04:52:53.918Z,233.84
2023-03-29T04:53:53.909Z,235.75
2023-03-29T04:54:53.910Z,236.23
2023-03-29T04:55:53.902Z,239.05
2023-03-29T04:56:53.973Z,243.15
2023-03-29T04:57:53.980Z,249.43
2023-03-29T04:58:54.037Z,250.73
2023-03-29T04:59:54.081Z,250.17
2023-03-29T05:00:54.100Z,249.82
2023-03-29T05:01:54.127Z,248.77
2023-03-29T05:02:54.182Z,248.29
2023-03-29T05:03:54.126Z,249.88
2023-03-29T05:04:54.109Z,249.84
2023-03-29T05:05:54.128Z,244.20
2023-03-29T05:06:54.117Z,239.39
2023-03-29T05:07:54.100Z,235.91
2023-03-29T05:08:54.106Z,238.63
2023-03-29T05:09:54.112Z,240.71
2023-03-29T05:10:54.087Z,239.65
2023-03-29T05:11:54.105Z,237.59
2023-03-29T05:12:54.330Z,239.85
2023-03-29T05:13:54.116Z,237.10
2023-03-29T05:14:54.094Z,235.82
2023-03-29T05:15:54.138Z,234.11
2023-03-29T05:16:54.154Z,234.65
2023-03-29T05:17:54.185Z,235.80
2023-03-29T05:18:54.222Z,236.04
2023-03-29T05:19:54.263Z,236.60
2023-03-29T05:20:54.269Z,244.76
2023-03-29T05:21:54.286Z,251.59
2023-03-29T05:22:54.261Z,248.41
2023-03-29T05:23:54.319Z,250.00
2023-03-29T05:24:54.292Z,248.83
2023-03-29T05:25:54.309Z,250.00
2023-03-29T05:26:54.314Z,246.85
2023-03-29T05:27:54.323Z,247.60
2023-03-29T05:28:54.335Z,250.00
2023-03-29T05:29:54.391Z,247.07
2023-03-29T05:30:54.346Z,242.36
2023-03-29T05:31:54.394Z,241.59
2023-03-29T05:32:54.446Z,238.28
2023-03-29T05:33:54.398Z,238.73
2023-03-29T05:34:54.406Z,237.55
2023-03-29T05:35:54.462Z,236.64
2023-03-29T05:36:54.416Z,233.50
2023-03-29T05:37:54.437Z,234.46
2023-03-29T05:38:54.459Z,235.80
2023-03-29T05:39:54.460Z,237.32
2023-03-29T05:40:55.498Z,233.43
2023-03-29T05:41:54.441Z,236.92
2023-03-29T05:42:54.446Z,240.03
2023-03-29T05:43:54.435Z,246.54
2023-03-29T05:44:54.601Z,260.54
2023-03-29T05:45:54.675Z,257.50
2023-03-29T05:46:54.415Z,253.40
2023-03-29T05:47:54.501Z,250.32
2023-03-29T05:48:54.397Z,250.05
2023-03-29T05:49:54.387Z,250.00
2023-03-29T05:50:54.387Z,250.00
2023-03-29T05:51:54.393Z,249.91
2023-03-29T05:52:54.378Z,249.92
2023-03-29T05:53:54.408Z,249.79
2023-03-29T05:54:54.449Z,249.75
2023-03-29T05:55:54.485Z,250.10
2023-03-29T05:56:54.593Z,249.86
2023-03-29T05:57:54.554Z,249.97
2023-03-29T05:58:55.088Z,248.99
2023-03-29T05:59:54.617Z,249.73
2023-03-29T06:00:54.652Z,246.54
2023-03-29T06:01:54.750Z,244.72
2023-03-29T06:02:56.370Z,245.85
2023-03-29T06:03:54.975Z,245.91
2023-03-29T06:04:54.733Z,246.23
2023-03-29T06:05:54.700Z,246.71
2023-03-29T06:06:54.685Z,247.07
2023-03-29T06:07:54.684Z,250.54
2023-03-29T06:08:54.681Z,249.94
2023-03-29T06:09:54.677Z,249.28
2023-03-29T06:10:54.681Z,248.52
2023-03-29T06:11:54.653Z,247.40
2023-03-29T06:12:54.656Z,246.87
2023-03-29T06:13:54.664Z,240.76
2023-03-29T06:14:54.636Z,241.20
2023-03-29T06:15:54.632Z,243.93
2023-03-29T06:16:54.673Z,247.14
2023-03-29T06:17:54.643Z,242.51
2023-03-29T06:18:54.615Z,242.47
2023-03-29T06:19:54.609Z,241.26
2023-03-29T06:20:54.595Z,243.82
2023-03-29T06:21:54.616Z,236.32
2023-03-29T06:22:54.589Z,242.70
2023-03-29T06:23:54.596Z,245.53
2023-03-29T06:24:54.583Z,246.27
2023-03-29T06:25:54.681Z,245.88
2023-03-29T06:26:54.577Z,239.43
2023-03-29T06:27:54.556Z,236.81
2023-03-29T06:28:54.542Z,239.94
2023-03-29T06:29:54.536Z,233.95
2023-03-29T06:30:54.562Z,232.92
2023-03-29T06:31:54.527Z,235.09
2023-03-29T06:32:54.614Z,237.77
2023-03-29T06:33:54.530Z,213.56
2023-03-29T06:34:54.543Z,203.36
2023-03-29T06:35:54.538Z,209.35
2023-03-29T06:36:54.495Z,219.13
2023-03-29T06:37:54.539Z,225.13
2023-03-29T06:38:54.503Z,228.04
2023-03-29T06:39:54.555Z,232.25
2023-03-29T06:40:54.590Z,233.27
2023-03-29T06:41:54.607Z,241.36
2023-03-29T06:42:54.628Z,252.00
2023-03-29T06:43:54.630Z,259.62
2023-03-29T06:44:54.626Z,248.93
2023-03-29T06:45:54.934Z,245.26
2023-03-29T06:46:54.713Z,246.03
2023-03-29T06:47:54.777Z,246.64
2023-03-29T06:48:54.711Z,232.15
2023-03-29T06:49:54.743Z,212.99
2023-03-29T06:50:54.748Z,218.35
2023-03-29T06:51:54.769Z,224.48
2023-03-29T06:52:55.198Z,225.90
2023-03-29T06:53:54.865Z,227.94
2023-03-29T06:54:54.875Z,224.45
2023-03-29T06:55:54.960Z,224.60
2023-03-29T06:56:55.153Z,231.20
2023-03-29T06:57:55.184Z,237.25
2023-03-29T06:58:55.120Z,239.97
2023-03-29T06:59:55.217Z,240.70
2023-03-29T07:00:55.196Z,239.03
2023-03-29T07:01:55.274Z,239.09
2023-03-29T07:02:55.729Z,236.87
2023-03-29T07:03:55.319Z,235.77
2023-03-29T07:04:55.322Z,219.74
2023-03-29T07:05:55.370Z,214.01
2023-03-29T07:06:55.429Z,214.15
2023-03-29T07:07:55.693Z,215.16
2023-03-29T07:08:55.464Z,209.38
2023-03-29T07:09:55.562Z,208.77
2023-03-29T07:10:55.477Z,217.26
2023-03-29T07:11:55.491Z,223.54
2023-03-29T07:12:55.497Z,220.97
2023-03-29T07:13:55.521Z,215.63
2023-03-29T07:14:55.507Z,213.22
2023-03-29T07:15:55.612Z,219.33
2023-03-29T07:16:55.523Z,217.78
2023-03-29T07:17:55.596Z,217.61
2023-03-29T07:18:55.565Z,223.67
2023-03-29T07:19:55.577Z,233.36
2023-03-29T07:20:55.602Z,237.79
2023-03-29T07:21:55.704Z,240.49
2023-03-29T07:22:55.604Z,242.92
2023-03-29T07:23:55.608Z,240.41
2023-03-29T07:24:55.614Z,234.58
2023-03-29T07:25:55.620Z,238.35
2023-03-29T07:27:04.142Z,235.95
2023-03-29T07:27:56.719Z,235.38
2023-03-29T07:28:55.636Z,220.51
2023-03-29T07:29:55.639Z,197.59
2023-03-29T07:30:55.624Z,204.40
2023-03-29T07:31:55.598Z,188.56
2023-03-29T07:32:55.848Z,186.87
2023-03-29T07:33:55.629Z,188.75
2023-03-29T07:34:55.585Z,200.34
2023-03-29T07:35:55.590Z,206.98
2023-03-29T07:36:55.725Z,208.31
2023-03-29T07:37:55.715Z,205.94
2023-03-29T07:38:56.429Z,205.99
2023-03-29T07:39:55.547Z,207.73
2023-03-29T07:40:55.542Z,207.37
2023-03-29T07:41:55.570Z,208.99
2023-03-29T07:42:55.552Z,210.02
2023-03-29T07:43:55.563Z,211.27
2023-03-29T07:44:55.692Z,211.41
2023-03-29T07:45:55.603Z,211.37
2023-03-29T07:46:55.612Z,211.21
2023-03-29T07:47:55.705Z,213.25
2023-03-29T07:48:55.642Z,214.97
2023-03-29T07:49:55.707Z,218.76
2023-03-29T07:50:55.644Z,220.50
2023-03-29T07:51:55.652Z,223.42
2023-03-29T07:52:55.705Z,224.81
2023-03-29T07:53:55.736Z,227.17
2023-03-29T07:54:56.199Z,229.93
2023-03-29T07:55:55.869Z,232.33
2023-03-29T07:56:55.947Z,233.11
2023-03-29T07:57:56.613Z,236.84
2023-03-29T07:58:56.020Z,237.61
2023-03-29T07:59:56.206Z,238.30
2023-03-29T08:00:56.184Z,239.46
2023-03-29T08:01:56.158Z,240.79
2023-03-29T08:02:56.225Z,242.17
2023-03-29T08:03:56.300Z,239.09
2023-03-29T08:04:56.335Z,240.89
2023-03-29T08:05:56.295Z,242.29
2023-03-29T08:06:56.329Z,244.17
2023-03-29T08:07:56.373Z,242.66
2023-03-29T08:08:56.414Z,239.67
2023-03-29T08:09:56.431Z,237.87
2023-03-29T08:10:56.482Z,238.88
2023-03-29T08:11:56.536Z,230.45
2023-03-29T08:12:56.528Z,224.96
2023-03-29T08:13:56.560Z,228.58
2023-03-29T08:14:56.713Z,188.56
2023-03-29T08:15:56.649Z,169.38
2023-03-29T08:16:56.700Z,154.34
2023-03-29T08:17:56.784Z,148.14
2023-03-29T08:18:56.746Z,149.92
2023-03-29T08:19:57.224Z,156.06
2023-03-29T08:20:56.797Z,161.60
2023-03-29T08:21:56.785Z,155.44
2023-03-29T08:22:56.834Z,158.29
2023-03-29T08:23:56.980Z,167.65
2023-03-29T08:24:57.226Z,175.09
2023-03-29T08:25:56.962Z,182.43
2023-03-29T08:26:56.960Z,189.20
2023-03-29T08:27:57.205Z,199.05
2023-03-29T08:28:56.996Z,203.68
2023-03-29T08:29:57.066Z,208.23
2023-03-29T08:30:57.152Z,212.44
2023-03-29T08:31:57.126Z,215.05
2023-03-29T08:32:57.191Z,217.76
2023-03-29T08:33:57.166Z,224.04
2023-03-29T08:34:57.173Z,223.97
2023-03-29T08:35:57.239Z,240.43
2023-03-29T08:36:57.214Z,254.37
2023-03-29T08:37:57.220Z,251.53
2023-03-29T08:38:57.244Z,250.15
2023-03-29T08:39:57.271Z,249.29
2023-03-29T08:40:57.242Z,249.73
2023-03-29T08:41:57.254Z,243.39
2023-03-29T08:42:57.729Z,235.53
2023-03-29T08:43:57.300Z,226.39
2023-03-29T08:44:57.286Z,218.52
2023-03-29T08:45:57.369Z,216.70
2023-03-29T08:46:57.392Z,209.20
2023-03-29T08:47:57.343Z,205.66
2023-03-29T08:48:57.363Z,207.62
2023-03-29T08:49:57.412Z,211.51
2023-03-29T08:50:57.538Z,213.32
2023-03-29T08:51:57.487Z,218.03
2023-03-29T08:52:57.530Z,215.68
2023-03-29T08:53:57.573Z,219.11
2023-03-29T08:54:57.637Z,220.81
2023-03-29T08:55:57.700Z,219.77
2023-03-29T08:56:57.736Z,218.52
2023-03-29T08:57:57.778Z,218.04
2023-03-29T08:58:57.881Z,216.46
2023-03-29T08:59:57.859Z,215.86
2023-03-29T09:00:57.891Z,215.10
2023-03-29T09:01:58.073Z,213.89
2023-03-29T09:02:58.046Z,213.22
2023-03-29T09:03:57.991Z,211.01
2023-03-29T09:04:57.955Z,210.80
2023-03-29T09:05:57.993Z,211.24
2023-03-29T09:06:58.051Z,210.86
2023-03-29T09:07:58.088Z,209.26
2023-03-29T09:08:58.224Z,209.40
2023-03-29T09:09:58.196Z,209.29
2023-03-29T09:10:58.231Z,209.28
2023-03-29T09:11:58.261Z,209.14
2023-03-29T09:12:58.324Z,210.20
2023-03-29T09:13:58.391Z,209.49
2023-03-29T09:14:58.418Z,209.60
2023-03-29T09:15:58.477Z,209.97
2023-03-29T09:16:58.533Z,210.50
2023-03-29T09:17:58.806Z,208.78
2023-03-29T09:18:58.656Z,209.24
2023-03-29T09:19:58.658Z,209.53
2023-03-29T09:20:58.755Z,210.33
2023-03-29T09:21:58.754Z,211.16
2023-03-29T09:22:59.233Z,213.90
2023-03-29T09:23:58.817Z,213.54
2023-03-29T09:24:58.869Z,211.89
2023-03-29T09:25:58.883Z,213.09
2023-03-29T09:26:58.931Z,212.50
2023-03-29T09:27:59.237Z,213.63
2023-03-29T09:28:58.967Z,214.21
2023-03-29T09:29:59.001Z,213.58
2023-03-29T09:30:59.035Z,212.77
2023-03-29T09:31:59.095Z,212.25
2023-03-29T09:32:59.280Z,208.69
2023-03-29T09:33:59.244Z,208.28
2023-03-29T09:34:59.167Z,209.69
2023-03-29T09:35:59.313Z,208.56
2023-03-29T09:36:59.339Z,210.74
2023-03-29T09:37:59.359Z,213.05
2023-03-29T09:38:59.419Z,215.05
2023-03-29T09:39:59.451Z,214.73
2023-03-29T09:40:59.518Z,215.52
2023-03-29T09:41:59.580Z,213.81
2023-03-29T09:42:59.593Z,211.47
2023-03-29T09:43:59.617Z,210.07
2023-03-29T09:44:59.665Z,205.88
2023-03-29T09:45:59.721Z,204.93
2023-03-29T09:46:59.676Z,205.46
2023-03-29T09:47:59.800Z,203.58
2023-03-29T09:49:00.238Z,198.49
2023-03-29T09:49:59.812Z,203.19
2023-03-29T09:50:59.973Z,205.28
2023-03-29T09:51:59.917Z,198.62
2023-03-29T09:52:59.958Z,196.08
2023-03-29T09:53:59.960Z,197.86
2023-03-29T09:54:59.974Z,195.16
2023-03-29T09:56:00.032Z,196.21
2023-03-29T09:57:00.078Z,196.52
2023-03-29T09:58:00.056Z,197.28
2023-03-29T09:59:00.048Z,198.54
2023-03-29T10:00:00.052Z,201.26
2023-03-29T10:01:00.305Z,203.18
2023-03-29T10:02:00.110Z,204.31
2023-03-29T10:03:00.536Z,203.40
2023-03-29T10:04:00.305Z,203.07
2023-03-29T10:05:00.153Z,203.81
2023-03-29T10:06:00.145Z,202.88
2023-03-29T10:07:00.172Z,203.77
2023-03-29T10:08:00.159Z,201.07
2023-03-29T10:09:00.186Z,199.87
2023-03-29T10:10:00.237Z,197.34
2023-03-29T10:11:00.417Z,199.64
2023-03-29T10:12:00.185Z,202.45
2023-03-29T10:13:00.176Z,198.66
2023-03-29T10:14:00.166Z,199.75
2023-03-29T10:15:00.247Z,204.40
2023-03-29T10:16:00.216Z,205.62
2023-03-29T10:17:00.201Z,205.09
2023-03-29T10:18:00.210Z,207.13
2023-03-29T10:19:00.159Z,208.71
2023-03-29T10:20:02.136Z,208.15
2023-03-29T10:21:00.277Z,199.95
2023-03-29T10:22:00.152Z,189.25
2023-03-29T10:23:00.163Z,182.09
2023-03-29T10:24:00.155Z,180.68
2023-03-29T10:25:00.320Z,182.68
2023-03-29T10:26:00.122Z,183.93
2023-03-29T10:27:00.222Z,181.90
2023-03-29T10:28:00.117Z,179.75
2023-03-29T10:29:00.119Z,184.90
2023-03-29T10:30:00.160Z,189.54
2023-03-29T10:31:00.206Z,194.40
2023-03-29T10:32:00.137Z,196.75
2023-03-29T10:33:00.112Z,199.07
2023-03-29T10:34:00.054Z,199.80
2023-03-29T10:35:00.157Z,200.42
2023-03-29T10:36:00.063Z,200.94
2023-03-29T10:37:00.042Z,201.56
2023-03-29T10:38:00.037Z,201.65
2023-03-29T10:39:00.055Z,197.16
2023-03-29T10:40:00.091Z,198.38
2023-03-29T10:41:00.062Z,200.82
2023-03-29T10:42:00.025Z,197.74
2023-03-29T10:43:00.007Z,197.45
2023-03-29T10:43:59.999Z,197.79
2023-03-29T10:45:00.029Z,197.37
2023-03-29T10:45:59.988Z,197.97
2023-03-29T10:46:59.968Z,198.27
2023-03-29T10:48:00.009Z,197.24
2023-03-29T10:48:59.993Z,194.67
2023-03-29T10:49:59.948Z,196.26
2023-03-29T10:51:00.126Z,196.85
2023-03-29T10:51:59.961Z,196.19
2023-03-29T10:52:59.931Z,190.88
2023-03-29T10:53:59.928Z,191.64
2023-03-29T10:54:59.986Z,187.24
2023-03-29T10:55:59.934Z,189.16
2023-03-29T10:56:59.961Z,189.65
2023-03-29T10:57:59.981Z,189.92
2023-03-29T10:59:00.036Z,192.79
2023-03-29T11:00:00.258Z,192.34
2023-03-29T11:01:00.320Z,193.22
2023-03-29T11:02:00.323Z,182.95
2023-03-29T11:03:00.426Z,181.31
2023-03-29T11:04:00.491Z,184.75
2023-03-29T11:05:00.757Z,185.87
2023-03-29T11:06:00.410Z,189.45
2023-03-29T11:07:00.494Z,188.47
2023-03-29T11:08:00.501Z,191.74
2023-03-29T11:09:00.572Z,187.17
2023-03-29T11:10:00.641Z,186.52
2023-03-29T11:11:00.763Z,191.68
2023-03-29T11:12:14.406Z,194.30
2023-03-29T11:13:01.709Z,185.86
2023-03-29T11:14:00.710Z,181.52
2023-03-29T11:15:00.781Z,185.55
2023-03-29T11:16:00.768Z,187.90
2023-03-29T11:17:00.691Z,197.48
2023-03-29T11:18:00.747Z,192.65
2023-03-29T11:19:00.670Z,188.93
2023-03-29T11:20:02.386Z,186.87
2023-03-29T11:21:00.875Z,185.06
2023-03-29T11:22:00.660Z,184.71
2023-03-29T11:23:00.644Z,186.54
2023-03-29T11:24:00.633Z,188.87
2023-03-29T11:25:00.631Z,192.29
2023-03-29T11:26:00.655Z,193.25
2023-03-29T11:27:00.617Z,194.82
2023-03-29T11:28:00.617Z,195.28
2023-03-29T11:29:00.598Z,196.07
2023-03-29T11:30:00.620Z,192.23
2023-03-29T11:31:00.898Z,191.60
2023-03-29T11:32:00.644Z,193.36
2023-03-29T11:33:00.651Z,194.60
2023-03-29T11:34:00.578Z,197.24
2023-03-29T11:35:00.569Z,199.32
2023-03-29T11:36:00.662Z,196.55
2023-03-29T11:37:00.585Z,197.96
2023-03-29T11:38:00.555Z,198.47
2023-03-29T11:39:00.570Z,198.42
2023-03-29T11:40:00.556Z,198.46
2023-03-29T11:41:00.709Z,197.58
2023-03-29T11:42:00.538Z,197.31
2023-03-29T11:43:00.519Z,197.83
2023-03-29T11:44:00.545Z,197.71
2023-03-29T11:45:00.523Z,197.13
2023-03-29T11:46:00.516Z,197.89
2023-03-29T11:47:00.563Z,196.83
2023-03-29T11:48:00.528Z,195.61
2023-03-29T11:49:00.506Z,195.48
2023-03-29T11:50:00.484Z,196.04
2023-03-29T11:51:00.686Z,194.03
2023-03-29T11:52:00.481Z,194.52
2023-03-29T11:53:00.489Z,195.04
2023-03-29T11:54:00.485Z,192.52
2023-03-29T11:55:00.455Z,191.71
2023-03-29T11:56:00.782Z,191.82
2023-03-29T11:57:00.472Z,191.23
2023-03-29T11:58:00.785Z,187.21
2023-03-29T11:59:00.450Z,185.40
2023-03-29T12:00:00.470Z,186.20
2023-03-29T12:01:00.661Z,182.91
2023-03-29T12:02:00.485Z,184.14
2023-03-29T12:03:00.860Z,185.70
2023-03-29T12:04:00.578Z,184.27
2023-03-29T12:05:00.387Z,183.55
2023-03-29T12:06:00.405Z,186.28
2023-03-29T12:07:00.409Z,188.66
2023-03-29T12:08:00.780Z,185.35
2023-03-29T12:09:00.478Z,182.15
2023-03-29T12:10:00.357Z,181.85
2023-03-29T12:11:00.463Z,183.38
2023-03-29T12:12:00.364Z,180.82
2023-03-29T12:13:00.785Z,179.66
2023-03-29T12:14:00.352Z,177.83
2023-03-29T12:15:00.338Z,176.77
2023-03-29T12:16:00.333Z,175.21
2023-03-29T12:17:00.367Z,177.30
2023-03-29T12:18:00.340Z,177.16
2023-03-29T12:19:00.295Z,177.28
2023-03-29T12:20:00.325Z,179.06
2023-03-29T12:21:00.351Z,177.47
2023-03-29T12:22:00.275Z,176.68
2023-03-29T12:23:00.273Z,177.37
2023-03-29T12:24:00.279Z,177.11
2023-03-29T12:25:00.269Z,175.65
2023-03-29T12:26:00.288Z,174.60
2023-03-29T12:27:00.255Z,179.41
2023-03-29T12:28:00.244Z,183.67
2023-03-29T12:29:00.233Z,185.30